createdAt,value
2022-08-17T00:00:43.019Z,97849.09
2022-08-17T00:01:51.762Z,97848.41
2022-08-17T00:03:15.406Z,97848.95
2022-08-17T00:04:28.101Z,97851.85
2022-08-17T00:05:44.390Z,97851.25
2022-08-17T00:06:54.744Z,97850.96
2022-08-17T00:08:03.030Z,97851.04
2022-08-17T00:09:12.304Z,97851.90
2022-08-17T00:10:26.317Z,97849.52
2022-08-17T00:11:40.979Z,97853.58
2022-08-17T00:12:50.335Z,97855.05
2022-08-17T00:14:06.602Z,97854.69
2022-08-17T00:15:16.948Z,97854.48
2022-08-17T00:16:56.169Z,97857.76
2022-08-17T00:18:03.124Z,97860.00
2022-08-17T00:19:14.063Z,97864.79
2022-08-17T00:20:23.428Z,97863.02
2022-08-17T00:22:32.814Z,97870.41
2022-08-17T00:23:19.348Z,97870.90
2022-08-17T00:24:27.012Z,97867.91
2022-08-17T00:25:35.788Z,97868.73
2022-08-17T00:26:45.742Z,97872.17
2022-08-17T00:27:54.952Z,97869.80
2022-08-17T00:29:07.827Z,97871.55
2022-08-17T00:30:17.926Z,97869.19
2022-08-17T00:31:25.155Z,97870.64
2022-08-17T00:33:14.162Z,97867.11
2022-08-17T00:34:08.062Z,97867.35
2022-08-17T00:35:16.168Z,97865.48
2022-08-17T00:36:25.306Z,97861.20
2022-08-17T00:37:32.483Z,97866.52
2022-08-17T00:38:40.606Z,97864.36
2022-08-17T00:39:51.734Z,97872.02
2022-08-17T00:41:17.157Z,97869.43
2022-08-17T00:42:31.166Z,97875.02
2022-08-17T00:43:57.629Z,97874.92
2022-08-17T00:45:07.929Z,97870.50
2022-08-17T00:46:28.231Z,97870.60
2022-08-17T00:47:37.373Z,97873.45
2022-08-17T00:48:46.395Z,97867.39
2022-08-17T00:49:56.192Z,97867.18
2022-08-17T00:51:09.287Z,97865.61
2022-08-17T00:52:21.884Z,97870.66
2022-08-17T00:53:30.813Z,97868.05
2022-08-17T00:54:41.902Z,97873.43
2022-08-17T00:55:52.167Z,97874.58
2022-08-17T00:57:06.504Z,97878.52
2022-08-17T00:58:14.552Z,97883.03
2022-08-17T00:59:25.104Z,97881.21
2022-08-17T01:00:44.777Z,97884.09
2022-08-17T01:01:56.987Z,97887.19
2022-08-17T01:03:15.303Z,97886.55
2022-08-17T01:04:24.585Z,97889.23
2022-08-17T01:05:36.087Z,97889.26
2022-08-17T01:06:50.893Z,97887.48
2022-08-17T01:08:02.602Z,97893.30
2022-08-17T01:09:11.377Z,97893.83
2022-08-17T01:10:57.150Z,97891.27
2022-08-17T01:11:48.218Z,97895.15
2022-08-17T01:12:57.929Z,97895.52
2022-08-17T01:14:05.132Z,97896.70
2022-08-17T01:15:14.266Z,97897.92
2022-08-17T01:16:31.447Z,97898.45
2022-08-17T01:17:38.971Z,97897.90
2022-08-17T01:18:47.933Z,97896.69
2022-08-17T01:19:57.168Z,97894.85
2022-08-17T01:21:09.635Z,97892.84
2022-08-17T01:22:29.223Z,97893.27
2022-08-17T01:23:41.351Z,97893.41
2022-08-17T01:25:03.033Z,97894.56
2022-08-17T01:26:12.462Z,97894.63
2022-08-17T01:27:20.682Z,97896.39
2022-08-17T01:28:52.999Z,97899.41
2022-08-17T01:30:57.398Z,97899.63
2022-08-17T01:31:43.240Z,97898.43
2022-08-17T01:32:51.885Z,97900.59
2022-08-17T01:34:02.562Z,97903.74
2022-08-17T01:35:10.571Z,97905.71
2022-08-17T01:36:17.661Z,97902.52
2022-08-17T01:37:33.845Z,97904.64
2022-08-17T01:38:44.017Z,97909.28
2022-08-17T01:39:56.179Z,97911.34
2022-08-17T01:41:07.483Z,97912.88
2022-08-17T01:42:29.200Z,97910.17
2022-08-17T01:43:51.116Z,97914.64
2022-08-17T01:45:00.234Z,97915.70
2022-08-17T01:46:09.377Z,97918.27
2022-08-17T01:47:18.073Z,97920.67
2022-08-17T01:48:25.615Z,97923.29
2022-08-17T01:49:34.877Z,97925.86
2022-08-17T01:50:44.965Z,97926.80
2022-08-17T01:51:56.319Z,97930.69
2022-08-17T01:53:09.393Z,97929.99
2022-08-17T01:54:18.583Z,97931.60
2022-08-17T01:55:31.015Z,97932.56
2022-08-17T01:56:42.366Z,97932.55
2022-08-17T01:57:50.796Z,97936.35
2022-08-17T01:58:58.579Z,97940.64
2022-08-17T02:00:13.563Z,97942.80
2022-08-17T02:01:22.647Z,97942.92
2022-08-17T02:02:30.644Z,97944.10
2022-08-17T02:03:38.912Z,97942.55
2022-08-17T02:04:46.871Z,97947.19
2022-08-17T02:05:54.874Z,97947.19
2022-08-17T02:07:03.401Z,97948.17
2022-08-17T02:08:19.894Z,97947.92
2022-08-17T02:09:30.119Z,97949.52
2022-08-17T02:10:39.109Z,97951.07
2022-08-17T02:11:57.998Z,97952.30
2022-08-17T02:13:07.497Z,97954.61
2022-08-17T02:14:15.207Z,97950.58
2022-08-17T02:15:25.209Z,97951.94
2022-08-17T02:16:37.797Z,97949.46
2022-08-17T02:17:48.224Z,97951.20
2022-08-17T02:19:04.690Z,97950.84
2022-08-17T02:20:12.443Z,97954.74
2022-08-17T02:21:20.195Z,97956.04
2022-08-17T02:22:28.040Z,97961.30
2022-08-17T02:23:42.360Z,97968.36
2022-08-17T02:25:00.983Z,97969.27
2022-08-17T02:26:11.783Z,97972.41
2022-08-17T02:27:35.313Z,97973.09
2022-08-17T02:28:46.541Z,97978.73
2022-08-17T02:29:58.041Z,97983.45
2022-08-17T02:31:14.078Z,97989.34
2022-08-17T02:32:28.243Z,97991.67
2022-08-17T02:33:42.805Z,97993.95
2022-08-17T02:34:54.462Z,97994.79
2022-08-17T02:36:01.712Z,97996.06
2022-08-17T02:37:10.820Z,97999.70
2022-08-17T02:38:20.886Z,97999.95
2022-08-17T02:39:32.064Z,98009.29
2022-08-17T02:40:42.306Z,98008.31
2022-08-17T02:42:05.167Z,98009.66
2022-08-17T02:43:16.299Z,98009.75
2022-08-17T02:44:40.010Z,98011.21
2022-08-17T02:45:53.209Z,98016.37
2022-08-17T02:47:00.712Z,98019.27
2022-08-17T02:48:09.520Z,98022.04
2022-08-17T02:49:17.502Z,98021.07
2022-08-17T02:50:26.078Z,98026.95
2022-08-17T02:51:34.407Z,98031.81
2022-08-17T02:52:44.585Z,98034.69
2022-08-17T02:54:03.892Z,98037.92
2022-08-17T02:55:30.600Z,98038.90
2022-08-17T02:56:39.542Z,98043.97
2022-08-17T02:57:48.827Z,98046.52
2022-08-17T02:58:59.068Z,98048.45
2022-08-17T03:00:23.365Z,98053.60
2022-08-17T03:01:32.189Z,98055.68
2022-08-17T03:02:48.449Z,98056.34
2022-08-17T03:03:57.649Z,98058.73
2022-08-17T03:05:06.136Z,98062.77
2022-08-17T03:06:13.202Z,98062.14
2022-08-17T03:07:21.693Z,98063.13
2022-08-17T03:08:32.055Z,98067.38
2022-08-17T03:09:42.090Z,98068.64
2022-08-17T03:10:51.329Z,98075.02
2022-08-17T03:12:05.323Z,98077.60
2022-08-17T03:13:15.917Z,98082.45
2022-08-17T03:14:25.940Z,98082.44
2022-08-17T03:15:34.827Z,98091.59
2022-08-17T03:16:42.850Z,98095.42
2022-08-17T03:17:54.208Z,98099.77
2022-08-17T03:19:01.349Z,98099.31
2022-08-17T03:20:09.760Z,98099.55
2022-08-17T03:21:17.422Z,98098.33
2022-08-17T03:22:36.035Z,98101.33
2022-08-17T03:23:48.773Z,98105.71
2022-08-17T03:25:04.346Z,98107.73
2022-08-17T03:26:23.391Z,98109.98
2022-08-17T03:27:42.612Z,98111.20
2022-08-17T03:28:57.801Z,98109.48
2022-08-17T03:30:08.455Z,98114.13
2022-08-17T03:31:19.662Z,98113.96
2022-08-17T03:32:28.499Z,98114.66
2022-08-17T03:33:36.268Z,98113.80
2022-08-17T03:34:44.834Z,98115.19
2022-08-17T03:35:52.797Z,98114.12
2022-08-17T03:37:04.715Z,98115.17
2022-08-17T03:38:15.199Z,98115.86
2022-08-17T03:39:25.698Z,98115.98
2022-08-17T03:40:58.155Z,98116.39
2022-08-17T03:42:32.052Z,98118.46
2022-08-17T03:43:42.974Z,98120.04
2022-08-17T03:44:53.582Z,98120.67
2022-08-17T03:46:34.594Z,98127.84
2022-08-17T03:48:07.327Z,98129.06
2022-08-17T03:49:37.543Z,98132.09
2022-08-17T03:51:14.545Z,98135.32
2022-08-17T03:52:51.947Z,98137.11
2022-08-17T03:54:22.731Z,98138.98
2022-08-17T03:55:52.142Z,98140.98
2022-08-17T03:57:03.797Z,98148.58
2022-08-17T03:58:16.060Z,98151.23
2022-08-17T03:59:24.361Z,98152.80
2022-08-17T04:00:40.355Z,98156.23
2022-08-17T04:01:53.769Z,98156.25
2022-08-17T04:03:09.088Z,98157.33
2022-08-17T04:04:17.436Z,98155.65
2022-08-17T04:05:25.482Z,98156.91
2022-08-17T04:06:35.227Z,98160.08
2022-08-17T04:07:43.747Z,98159.09
2022-08-17T04:08:52.169Z,98158.73
2022-08-17T04:10:01.589Z,98156.80
2022-08-17T04:11:13.059Z,98156.07
2022-08-17T04:12:22.466Z,98163.55
2022-08-17T04:13:30.787Z,98163.58
2022-08-17T04:14:53.763Z,98166.05
2022-08-17T04:16:13.393Z,98172.60
2022-08-17T04:17:24.258Z,98173.36
2022-08-17T04:18:37.590Z,98176.33
2022-08-17T04:19:47.141Z,98182.44
2022-08-17T04:20:55.467Z,98185.76
2022-08-17T04:22:07.347Z,98188.88
2022-08-17T04:23:16.383Z,98190.65
2022-08-17T04:24:27.130Z,98195.83
2022-08-17T04:25:35.875Z,98199.09
2022-08-17T04:26:53.118Z,98200.20
2022-08-17T04:28:09.034Z,98198.27
2022-08-17T04:29:27.347Z,98201.05
2022-08-17T04:30:56.958Z,98203.44
2022-08-17T04:32:05.710Z,98205.90
2022-08-17T04:33:23.390Z,98208.98
2022-08-17T04:34:30.623Z,98209.49
2022-08-17T04:35:43.004Z,98209.08
2022-08-17T04:36:51.530Z,98212.02
2022-08-17T04:38:02.157Z,98216.73
2022-08-17T04:39:13.207Z,98218.17
2022-08-17T04:40:41.887Z,98221.31
2022-08-17T04:42:19.715Z,98223.77
2022-08-17T04:43:30.223Z,98226.77
2022-08-17T04:44:39.619Z,98232.40
2022-08-17T04:45:56.025Z,98236.58
2022-08-17T04:47:13.014Z,98236.61
2022-08-17T04:48:22.822Z,98236.24
2022-08-17T04:49:39.509Z,98239.71
2022-08-17T04:50:50.905Z,98240.48
2022-08-17T04:52:04.314Z,98241.92
2022-08-17T04:53:14.393Z,98245.13
2022-08-17T04:54:23.446Z,98251.11
2022-08-17T04:55:33.764Z,98249.70
2022-08-17T04:56:41.180Z,98249.81
2022-08-17T04:57:48.430Z,98250.41
2022-08-17T04:58:58.912Z,98244.75
2022-08-17T05:00:08.041Z,98242.88
2022-08-17T05:01:16.430Z,98242.13
2022-08-17T05:02:34.645Z,98243.05
2022-08-17T05:04:00.642Z,98241.91
2022-08-17T05:05:32.444Z,98242.12
2022-08-17T05:06:41.871Z,98241.35
2022-08-17T05:07:54.529Z,98244.66
2022-08-17T05:09:02.956Z,98252.81
2022-08-17T05:10:13.075Z,98254.32
2022-08-17T05:11:20.321Z,98258.92
2022-08-17T05:12:30.511Z,98264.91
2022-08-17T05:13:39.938Z,98264.52
2022-08-17T05:14:50.573Z,98264.55
2022-08-17T05:16:02.088Z,98265.61
2022-08-17T05:17:11.055Z,98268.97
2022-08-17T05:18:19.772Z,98270.86
2022-08-17T05:19:28.173Z,98268.09
2022-08-17T05:20:39.050Z,98268.35
2022-08-17T05:21:47.759Z,98266.55
2022-08-17T05:22:57.841Z,98266.66
2022-08-17T05:24:06.036Z,98261.68
2022-08-17T05:25:37.439Z,98264.05
2022-08-17T05:26:45.840Z,98260.49
2022-08-17T05:27:55.449Z,98263.58
2022-08-17T05:29:04.112Z,98268.52
2022-08-17T05:30:12.124Z,98268.46
2022-08-17T05:31:20.414Z,98271.07
2022-08-17T05:32:48.324Z,98269.49
2022-08-17T05:33:59.048Z,98271.18
2022-08-17T05:35:10.958Z,98269.60
2022-08-17T05:36:42.199Z,98270.69
2022-08-17T05:37:52.874Z,98267.92
2022-08-17T05:39:00.673Z,98271.61
2022-08-17T05:40:09.473Z,98272.54
2022-08-17T05:41:19.036Z,98277.39
2022-08-17T05:42:26.280Z,98278.42
2022-08-17T05:43:36.844Z,98280.59
2022-08-17T05:44:45.974Z,98281.57
2022-08-17T05:46:22.533Z,98281.90
2022-08-17T05:47:30.853Z,98283.89
2022-08-17T05:48:47.412Z,98278.84
2022-08-17T05:49:57.309Z,98275.79
2022-08-17T05:51:28.784Z,98278.90
2022-08-17T05:53:24.746Z,98282.42
2022-08-17T05:55:13.390Z,98286.70
2022-08-17T05:56:30.646Z,98292.59
2022-08-17T05:57:56.322Z,98292.46
2022-08-17T05:59:33.431Z,98295.25
2022-08-17T06:01:05.906Z,98294.47
2022-08-17T06:02:27.355Z,98293.69
2022-08-17T06:03:39.616Z,98294.21
2022-08-17T06:04:48.732Z,98292.05
2022-08-17T06:06:08.020Z,98292.83
2022-08-17T06:07:25.189Z,98294.17
2022-08-17T06:08:47.615Z,98295.61
2022-08-17T06:10:13.912Z,98294.45
2022-08-17T06:11:40.492Z,98293.51
2022-08-17T06:13:17.875Z,98297.17
2022-08-17T06:14:32.352Z,98293.70
2022-08-17T06:15:53.858Z,98292.49
2022-08-17T06:17:07.305Z,98291.81
2022-08-17T06:18:19.015Z,98293.17
2022-08-17T06:19:35.209Z,98293.86
2022-08-17T06:20:56.959Z,98293.05
2022-08-17T06:22:04.790Z,98290.02
2022-08-17T06:23:17.040Z,98291.23
2022-08-17T06:24:49.830Z,98289.73
2022-08-17T06:26:05.372Z,98287.96
2022-08-17T06:27:38.347Z,98284.69
2022-08-17T06:29:18.668Z,98285.63
2022-08-17T06:30:57.477Z,98289.17
2022-08-17T06:32:03.285Z,98290.80
2022-08-17T06:33:16.565Z,98293.25
2022-08-17T06:34:27.446Z,98297.79
2022-08-17T06:36:15.794Z,98300.75
2022-08-17T06:37:58.183Z,98303.20
2022-08-17T06:39:08.814Z,98304.69
2022-08-17T06:40:40.377Z,98307.59
2022-08-17T06:42:00.084Z,98311.61
2022-08-17T06:43:37.830Z,98313.98
2022-08-17T06:44:51.224Z,98315.34
2022-08-17T06:46:13.397Z,98317.51
2022-08-17T06:47:55.112Z,98317.88
2022-08-17T06:49:55.593Z,98314.46
2022-08-17T06:51:12.756Z,98307.80
2022-08-17T06:52:45.752Z,98307.31
2022-08-17T06:54:02.859Z,98308.04
2022-08-17T06:55:17.832Z,98304.02
2022-08-17T06:56:53.444Z,98308.30
2022-08-17T06:58:16.245Z,98309.06
2022-08-17T06:59:54.733Z,98308.63
2022-08-17T07:01:26.521Z,98312.39
2022-08-17T07:02:52.415Z,98315.09
2022-08-17T07:04:16.633Z,98317.67
2022-08-17T07:05:44.998Z,98319.52
2022-08-17T07:07:23.969Z,98314.81
2022-08-17T07:09:33.929Z,98313.10
2022-08-17T07:10:53.202Z,98311.27
2022-08-17T07:12:13.202Z,98310.45
2022-08-17T07:13:39.868Z,98308.54
2022-08-17T07:15:21.679Z,98304.71
2022-08-17T07:16:37.544Z,98299.02
2022-08-17T07:17:48.737Z,98295.23
2022-08-17T07:18:56.884Z,98289.32
2022-08-17T07:20:08.009Z,98282.73
2022-08-17T07:21:40.190Z,98281.81
2022-08-17T07:23:00.732Z,98280.81
2022-08-17T07:24:49.259Z,98279.34
2022-08-17T07:26:09.485Z,98283.13
2022-08-17T07:27:32.491Z,98283.87
2022-08-17T07:28:42.578Z,98286.16
2022-08-17T07:29:52.422Z,98286.51
2022-08-17T07:31:03.396Z,98289.00
2022-08-17T07:32:11.079Z,98288.85
2022-08-17T07:33:25.152Z,98284.17
2022-08-17T07:34:32.425Z,98285.83
2022-08-17T07:35:45.840Z,98284.66
2022-08-17T07:37:06.491Z,98287.80
2022-08-17T07:38:29.527Z,98288.44
2022-08-17T07:40:14.919Z,98287.54
2022-08-17T07:41:09.690Z,98288.85
2022-08-17T07:42:19.764Z,98288.08
2022-08-17T07:43:38.359Z,98290.65
2022-08-17T07:44:57.718Z,98288.74
2022-08-17T07:46:44.226Z,98290.19
2022-08-17T07:48:12.713Z,98291.27
2022-08-17T07:49:34.153Z,98293.06
2022-08-17T07:50:42.973Z,98295.25
2022-08-17T07:52:00.173Z,98300.52
2022-08-17T07:53:30.307Z,98302.26
2022-08-17T07:54:39.943Z,98303.73
2022-08-17T07:55:47.556Z,98300.60
2022-08-17T07:57:16.663Z,98297.20
2022-08-17T07:58:26.119Z,98289.98
2022-08-17T07:59:40.763Z,98288.15
2022-08-17T08:01:13.797Z,98283.00
2022-08-17T08:02:42.579Z,98280.39
2022-08-17T08:03:52.450Z,98282.54
2022-08-17T08:05:46.257Z,98282.46
2022-08-17T08:06:57.759Z,98283.31
2022-08-17T08:08:24.721Z,98284.39
2022-08-17T08:09:53.761Z,98283.56
2022-08-17T08:11:04.212Z,98284.55
2022-08-17T08:12:32.718Z,98280.73
2022-08-17T08:13:47.260Z,98283.02
2022-08-17T08:15:20.350Z,98281.05
2022-08-17T08:16:31.055Z,98279.57
2022-08-17T08:17:50.153Z,98280.63
2022-08-17T08:19:03.593Z,98282.85
2022-08-17T08:20:19.660Z,98280.78
2022-08-17T08:21:52.757Z,98280.45
2022-08-17T08:23:22.286Z,98284.01
2022-08-17T08:25:04.401Z,98286.28
2022-08-17T08:26:31.772Z,98289.01
2022-08-17T08:27:53.332Z,98286.66
2022-08-17T08:29:19.524Z,98286.36
2022-08-17T08:30:26.516Z,98288.45
2022-08-17T08:31:53.034Z,98287.39
2022-08-17T08:33:21.643Z,98290.05
2022-08-17T08:35:02.098Z,98291.02
2022-08-17T08:37:14.525Z,98292.27
2022-08-17T08:38:43.965Z,98293.73
2022-08-17T08:40:13.450Z,98294.05
2022-08-17T08:41:46.184Z,98294.73
2022-08-17T08:43:24.341Z,98293.53
2022-08-17T08:45:00.351Z,98291.30
2022-08-17T08:46:14.586Z,98289.48
2022-08-17T08:47:51.105Z,98289.48
2022-08-17T08:49:14.601Z,98289.38
2022-08-17T08:50:38.462Z,98290.20
2022-08-17T08:51:59.674Z,98289.55
2022-08-17T08:53:09.540Z,98292.30
2022-08-17T08:54:33.461Z,98296.66
2022-08-17T08:56:05.646Z,98296.33
2022-08-17T08:57:32.910Z,98295.09
2022-08-17T08:59:03.456Z,98299.62
2022-08-17T09:00:19.473Z,98300.63
2022-08-17T09:01:45.030Z,98303.02
2022-08-17T09:03:14.399Z,98303.40
2022-08-17T09:04:44.943Z,98305.59
2022-08-17T09:06:53.992Z,98306.88
2022-08-17T09:08:41.265Z,98307.92
2022-08-17T09:10:15.235Z,98310.59
2022-08-17T09:11:23.936Z,98313.05
2022-08-17T09:12:50.744Z,98316.02
2022-08-17T09:14:21.297Z,98312.71
2022-08-17T09:15:47.165Z,98309.62
2022-08-17T09:17:10.439Z,98308.00
2022-08-17T09:19:03.191Z,98308.69
2022-08-17T09:20:29.011Z,98308.11
2022-08-17T09:21:57.898Z,98308.96
2022-08-17T09:23:27.647Z,98310.27
2022-08-17T09:24:47.020Z,98311.64
2022-08-17T09:26:05.281Z,98312.04
2022-08-17T09:27:17.884Z,98313.30
2022-08-17T09:28:39.049Z,98312.20
2022-08-17T09:30:03.767Z,98311.33
2022-08-17T09:31:13.156Z,98311.70
2022-08-17T09:32:26.583Z,98311.70
2022-08-17T09:33:35.996Z,98313.73
2022-08-17T09:34:56.275Z,98312.70
2022-08-17T09:36:33.699Z,98314.67
2022-08-17T09:38:03.841Z,98315.64
2022-08-17T09:39:13.673Z,98315.43
2022-08-17T09:40:29.517Z,98317.20
2022-08-17T09:41:48.977Z,98315.98
2022-08-17T09:43:32.053Z,98315.50
2022-08-17T09:45:15.040Z,98318.15
2022-08-17T09:46:26.762Z,98322.35
2022-08-17T09:47:47.662Z,98324.97
2022-08-17T09:49:08.761Z,98325.11
2022-08-17T09:51:03.553Z,98324.91
2022-08-17T09:52:24.739Z,98323.52
2022-08-17T09:53:32.917Z,98323.59
2022-08-17T09:54:41.341Z,98324.68
2022-08-17T09:56:07.456Z,98326.77
2022-08-17T09:57:31.479Z,98327.80
2022-08-17T09:58:44.169Z,98326.00
2022-08-17T10:00:21.690Z,98323.86
2022-08-17T10:01:39.552Z,98323.39
2022-08-17T10:03:11.278Z,98320.18
2022-08-17T10:04:29.560Z,98319.86
2022-08-17T10:05:48.762Z,98316.39
2022-08-17T10:07:00.558Z,98319.80
2022-08-17T10:08:44.540Z,98318.16
2022-08-17T10:09:54.593Z,98317.86
2022-08-17T10:11:50.370Z,98317.27
2022-08-17T10:13:09.647Z,98316.58
2022-08-17T10:14:37.359Z,98317.48
2022-08-17T10:16:32.779Z,98317.25
2022-08-17T10:17:43.502Z,98319.68
2022-08-17T10:19:18.267Z,98320.46
2022-08-17T10:20:28.147Z,98320.02
2022-08-17T10:22:01.160Z,98320.39
2022-08-17T10:23:49.705Z,98318.83
2022-08-17T10:25:22.316Z,98321.27
2022-08-17T10:26:55.784Z,98318.79
2022-08-17T10:28:07.401Z,98316.79
2022-08-17T10:29:28.951Z,98314.59
2022-08-17T10:30:39.439Z,98314.52
2022-08-17T10:31:52.252Z,98316.08
2022-08-17T10:33:09.505Z,98318.98
2022-08-17T10:34:41.302Z,98320.94
2022-08-17T10:36:10.191Z,98322.02
2022-08-17T10:37:43.224Z,98323.13
2022-08-17T10:39:06.484Z,98324.35
2022-08-17T10:40:31.923Z,98323.57
2022-08-17T10:41:46.908Z,98318.80
2022-08-17T10:43:21.080Z,98320.08
2022-08-17T10:44:41.068Z,98323.04
2022-08-17T10:46:30.051Z,98318.83
2022-08-17T10:48:06.498Z,98316.36
2022-08-17T10:49:23.595Z,98314.79
2022-08-17T10:51:01.495Z,98314.45
2022-08-17T10:52:24.821Z,98315.31
2022-08-17T10:53:35.441Z,98313.80
2022-08-17T10:54:47.964Z,98313.93
2022-08-17T10:56:22.504Z,98311.95
2022-08-17T10:57:35.957Z,98312.63
2022-08-17T10:58:55.625Z,98311.96
2022-08-17T11:00:04.104Z,98310.88
2022-08-17T11:01:14.340Z,98311.77
2022-08-17T11:02:43.768Z,98314.04
2022-08-17T11:03:56.078Z,98315.11
2022-08-17T11:05:09.806Z,98316.40
2022-08-17T11:06:22.571Z,98318.44
2022-08-17T11:08:06.873Z,98319.09
2022-08-17T11:09:37.928Z,98319.70
2022-08-17T11:10:59.726Z,98321.55
2022-08-17T11:12:13.959Z,98322.67
2022-08-17T11:13:50.030Z,98326.14
2022-08-17T11:15:44.595Z,98325.33
2022-08-17T11:17:14.502Z,98322.69
2022-08-17T11:18:42.932Z,98320.95
2022-08-17T11:20:23.591Z,98321.52
2022-08-17T11:22:07.332Z,98325.21
2022-08-17T11:23:36.876Z,98325.45
2022-08-17T11:24:54.276Z,98326.73
2022-08-17T11:26:09.558Z,98326.52
2022-08-17T11:27:33.939Z,98326.66
2022-08-17T11:28:52.808Z,98327.89
2022-08-17T11:30:03.263Z,98328.69
2022-08-17T11:31:44.278Z,98328.13
2022-08-17T11:32:53.431Z,98326.00
2022-08-17T11:34:27.671Z,98326.18
2022-08-17T11:35:41.854Z,98322.20
2022-08-17T11:37:25.679Z,98319.13
2022-08-17T11:38:49.130Z,98322.98
2022-08-17T11:40:28.841Z,98324.96
2022-08-17T11:42:01.452Z,98326.52
2022-08-17T11:43:18.759Z,98328.04
2022-08-17T11:44:45.667Z,98328.28
2022-08-17T11:46:17.601Z,98328.92
2022-08-17T11:48:23.871Z,98331.16
2022-08-17T11:50:27.992Z,98330.53
2022-08-17T11:52:06.626Z,98329.20
2022-08-17T11:53:41.159Z,98329.34
2022-08-17T11:54:50.545Z,98327.65
2022-08-17T11:56:06.195Z,98326.94
2022-08-17T11:57:22.883Z,98324.98
2022-08-17T11:58:33.095Z,98320.45
2022-08-17T11:59:44.894Z,98320.27
2022-08-17T12:00:57.369Z,98324.74
2022-08-17T12:02:06.094Z,98323.23
2022-08-17T12:03:39.395Z,98323.31
2022-08-17T12:05:05.144Z,98321.00
2022-08-17T12:06:30.757Z,98316.86
2022-08-17T12:08:09.582Z,98317.27
2022-08-17T12:09:26.073Z,98314.59
2022-08-17T12:10:35.569Z,98320.80
2022-08-17T12:12:13.117Z,98320.09
2022-08-17T12:13:33.977Z,98320.81
2022-08-17T12:15:10.224Z,98322.73
2022-08-17T12:16:19.776Z,98328.25
2022-08-17T12:17:41.184Z,98327.08
2022-08-17T12:18:54.286Z,98326.98
2022-08-17T12:20:34.244Z,98329.85
2022-08-17T12:21:55.760Z,98330.73
2022-08-17T12:23:27.676Z,98332.71
2022-08-17T12:25:01.976Z,98329.75
2022-08-17T12:26:22.666Z,98331.09
2022-08-17T12:27:46.224Z,98332.88
2022-08-17T12:29:09.511Z,98340.73
2022-08-17T12:30:26.771Z,98342.95
2022-08-17T12:31:37.348Z,98343.28
2022-08-17T12:32:48.845Z,98343.64
2022-08-17T12:33:56.116Z,98340.48
2022-08-17T12:35:04.715Z,98341.11
2022-08-17T12:36:14.183Z,98340.98
2022-08-17T12:37:32.874Z,98343.41
2022-08-17T12:38:40.177Z,98338.84
2022-08-17T12:40:10.575Z,98344.52
2022-08-17T12:41:33.486Z,98341.84
2022-08-17T12:42:42.911Z,98342.21
2022-08-17T12:43:57.371Z,98347.83
2022-08-17T12:45:06.280Z,98348.41
2022-08-17T12:46:18.750Z,98348.81
2022-08-17T12:47:26.064Z,98349.77
2022-08-17T12:48:38.345Z,98352.89
2022-08-17T12:49:47.319Z,98352.29
2022-08-17T12:51:12.721Z,98356.26
2022-08-17T12:52:34.033Z,98356.75
2022-08-17T12:53:44.112Z,98358.80
2022-08-17T12:55:07.009Z,98358.36
2022-08-17T12:56:16.124Z,98361.52
2022-08-17T12:57:30.304Z,98362.04
2022-08-17T12:58:45.621Z,98363.34
2022-08-17T13:00:21.586Z,98367.50
2022-08-17T13:01:32.317Z,98370.08
2022-08-17T13:03:20.877Z,98371.67
2022-08-17T13:04:29.968Z,98369.90
2022-08-17T13:05:44.946Z,98368.39
2022-08-17T13:06:59.865Z,98369.05
2022-08-17T13:08:19.370Z,98371.72
2022-08-17T13:09:35.842Z,98368.33
2022-08-17T13:11:03.604Z,98369.02
2022-08-17T13:12:12.151Z,98368.38
2022-08-17T13:13:27.590Z,98369.63
2022-08-17T13:14:37.632Z,98368.86
2022-08-17T13:15:54.515Z,98369.30
2022-08-17T13:17:12.703Z,98370.23
2022-08-17T13:18:42.092Z,98371.65
2022-08-17T13:19:52.241Z,98372.27
2022-08-17T13:21:00.848Z,98371.36
2022-08-17T13:22:13.411Z,98374.48
2022-08-17T13:23:21.845Z,98371.19
2022-08-17T13:24:38.150Z,98372.82
2022-08-17T13:26:08.419Z,98371.80
2022-08-17T13:27:16.813Z,98372.21
2022-08-17T13:28:30.659Z,98372.14
2022-08-17T13:30:01.616Z,98372.59
2022-08-17T13:31:51.893Z,98369.30
2022-08-17T13:33:05.384Z,98373.63
2022-08-17T13:34:19.634Z,98378.55
2022-08-17T13:35:38.966Z,98378.27
2022-08-17T13:36:48.904Z,98380.34
2022-08-17T13:38:09.006Z,98383.41
2022-08-17T13:39:24.367Z,98384.04
2022-08-17T13:40:33.974Z,98382.48
2022-08-17T13:41:41.287Z,98384.21
2022-08-17T13:42:54.291Z,98385.79
2022-08-17T13:44:03.180Z,98389.25
2022-08-17T13:45:42.198Z,98390.92
2022-08-17T13:46:57.329Z,98387.16
2022-08-17T13:48:23.871Z,98388.73
2022-08-17T13:49:41.980Z,98390.24
2022-08-17T13:50:58.657Z,98391.28
2022-08-17T13:52:07.611Z,98391.64
2022-08-17T13:53:51.994Z,98392.23
2022-08-17T13:54:59.213Z,98396.27
2022-08-17T13:56:37.223Z,98394.27
2022-08-17T13:57:40.007Z,98397.82
2022-08-17T13:59:09.377Z,98402.17
2022-08-17T14:00:38.315Z,98403.13
2022-08-17T14:01:52.798Z,98404.34
2022-08-17T14:03:03.261Z,98404.03
2022-08-17T14:04:18.181Z,98403.79
2022-08-17T14:05:28.190Z,98403.27
2022-08-17T14:07:01.357Z,98405.66
2022-08-17T14:08:08.793Z,98406.32
2022-08-17T14:09:16.702Z,98408.66
2022-08-17T14:10:25.333Z,98411.71
2022-08-17T14:11:32.490Z,98406.08
2022-08-17T14:12:40.716Z,98405.91
2022-08-17T14:13:48.197Z,98407.30
2022-08-17T14:14:58.298Z,98410.54
2022-08-17T14:16:05.821Z,98409.69
2022-08-17T14:17:13.087Z,98410.84
2022-08-17T14:18:50.675Z,98409.56
2022-08-17T14:19:49.693Z,98410.36
2022-08-17T14:20:58.704Z,98406.88
2022-08-17T14:22:06.680Z,98405.59
2022-08-17T14:23:16.435Z,98407.55
2022-08-17T14:24:26.799Z,98407.59
2022-08-17T14:25:35.966Z,98405.38
2022-08-17T14:26:46.076Z,98401.16
2022-08-17T14:27:56.863Z,98401.85
2022-08-17T14:29:12.677Z,98403.52
2022-08-17T14:30:26.783Z,98406.23
2022-08-17T14:31:38.240Z,98403.91
2022-08-17T14:32:49.845Z,98407.36
2022-08-17T14:33:57.426Z,98408.30
2022-08-17T14:35:07.710Z,98407.52
2022-08-17T14:36:15.438Z,98408.49
2022-08-17T14:37:23.271Z,98410.33
2022-08-17T14:38:31.133Z,98408.90
2022-08-17T14:39:39.744Z,98407.77
2022-08-17T14:40:51.263Z,98407.77
2022-08-17T14:41:59.914Z,98410.08
2022-08-17T14:43:07.548Z,98408.77
2022-08-17T14:44:18.011Z,98407.86
2022-08-17T14:45:30.293Z,98408.10
2022-08-17T14:46:52.226Z,98406.92
2022-08-17T14:48:00.704Z,98409.77
2022-08-17T14:49:08.803Z,98410.23
2022-08-17T14:50:22.533Z,98410.68
2022-08-17T14:51:32.070Z,98412.53
2022-08-17T14:52:43.653Z,98415.66
2022-08-17T14:53:52.938Z,98414.89
2022-08-17T14:55:02.051Z,98412.70
2022-08-17T14:56:13.074Z,98413.83
2022-08-17T14:57:34.261Z,98414.09
2022-08-17T14:58:47.769Z,98418.27
2022-08-17T14:59:58.306Z,98418.34
2022-08-17T15:01:09.880Z,98419.11
2022-08-17T15:02:19.767Z,98420.45
2022-08-17T15:03:27.572Z,98415.63
2022-08-17T15:04:35.323Z,98415.31
2022-08-17T15:05:45.861Z,98413.98
2022-08-17T15:06:55.947Z,98413.02
2022-08-17T15:08:05.518Z,98414.61
2022-08-17T15:09:18.162Z,98422.55
2022-08-17T15:10:26.123Z,98421.39
2022-08-17T15:11:34.224Z,98419.75
2022-08-17T15:12:43.637Z,98420.36
2022-08-17T15:13:54.544Z,98420.84
2022-08-17T15:15:04.696Z,98421.66
2022-08-17T15:16:15.295Z,98426.25
2022-08-17T15:17:25.456Z,98423.77
2022-08-17T15:18:54.138Z,98422.96